createdAt,value
2023-01-03T00:00:45.022Z,1008.69
2023-01-03T00:01:44.974Z,1008.65
2023-01-03T00:02:44.981Z,1008.68
2023-01-03T00:03:44.986Z,1008.68
2023-01-03T00:04:49.414Z,1008.67
2023-01-03T00:05:44.937Z,1008.67
2023-01-03T00:06:44.862Z,1008.69
2023-01-03T00:07:44.849Z,1008.70
2023-01-03T00:08:44.840Z,1008.72
2023-01-03T00:09:44.847Z,1008.75
2023-01-03T00:10:44.948Z,1008.73
2023-01-03T00:11:51.870Z,1008.76
2023-01-03T00:12:44.801Z,1008.80
2023-01-03T00:13:44.781Z,1008.78
2023-01-03T00:14:44.817Z,1008.84
2023-01-03T00:15:44.761Z,1008.84
2023-01-03T00:16:44.825Z,1008.83
2023-01-03T00:17:44.762Z,1008.85
2023-01-03T00:18:44.721Z,1008.79
2023-01-03T00:19:44.734Z,1008.82
2023-01-03T00:20:44.711Z,1008.84
2023-01-03T00:21:44.690Z,1008.80
2023-01-03T00:22:44.682Z,1008.75
2023-01-03T00:23:44.691Z,1008.77
2023-01-03T00:24:44.664Z,1008.74
2023-01-03T00:25:44.701Z,1008.79
2023-01-03T00:26:44.636Z,1008.80
2023-01-03T00:27:44.633Z,1008.73
2023-01-03T00:28:44.641Z,1008.74
2023-01-03T00:29:44.621Z,1008.78
2023-01-03T00:30:44.647Z,1008.73
2023-01-03T00:31:44.587Z,1008.79
2023-01-03T00:32:44.570Z,1008.78
2023-01-03T00:33:44.560Z,1008.82
2023-01-03T00:34:44.585Z,1008.80
2023-01-03T00:35:44.541Z,1008.81
2023-01-03T00:36:44.525Z,1008.81
2023-01-03T00:37:44.520Z,1008.87
2023-01-03T00:38:44.501Z,1008.89
2023-01-03T00:39:44.501Z,1008.91
2023-01-03T00:40:44.506Z,1008.89
2023-01-03T00:41:44.475Z,1008.86
2023-01-03T00:42:44.460Z,1008.82
2023-01-03T00:43:44.450Z,1008.87
2023-01-03T00:44:44.441Z,1008.87
2023-01-03T00:45:44.491Z,1008.84
2023-01-03T00:46:44.411Z,1008.84
2023-01-03T00:47:44.402Z,1008.86
2023-01-03T00:48:44.390Z,1008.86
2023-01-03T00:49:44.383Z,1008.88
2023-01-03T00:50:44.379Z,1008.85
2023-01-03T00:51:44.380Z,1008.88
2023-01-03T00:52:44.351Z,1008.90
2023-01-03T00:53:44.341Z,1008.90
2023-01-03T00:54:44.321Z,1008.85
2023-01-03T00:55:44.320Z,1008.88
2023-01-03T00:56:44.331Z,1008.89
2023-01-03T00:57:44.290Z,1008.89
2023-01-03T00:58:44.282Z,1008.91
2023-01-03T00:59:44.269Z,1008.96
2023-01-03T01:00:44.259Z,1008.91
2023-01-03T01:01:46.551Z,1008.97
2023-01-03T01:02:44.479Z,1008.98
2023-01-03T01:03:44.283Z,1008.96
2023-01-03T01:04:44.219Z,1008.99
2023-01-03T01:05:44.209Z,1008.98
2023-01-03T01:06:44.189Z,1008.95
2023-01-03T01:07:44.200Z,1008.98
2023-01-03T01:08:44.171Z,1008.99
2023-01-03T01:09:44.159Z,1009.01
2023-01-03T01:10:44.150Z,1009.01
2023-01-03T01:11:44.139Z,1009.03
2023-01-03T01:12:44.120Z,1009.02
2023-01-03T01:13:44.129Z,1009.05
2023-01-03T01:14:44.107Z,1009.02
2023-01-03T01:15:44.227Z,1009.08
2023-01-03T01:16:44.079Z,1009.04
2023-01-03T01:17:44.068Z,1009.04
2023-01-03T01:18:44.059Z,1009.08
2023-01-03T01:19:44.067Z,1009.08
2023-01-03T01:20:44.045Z,1009.10
2023-01-03T01:21:44.031Z,1009.10
2023-01-03T01:22:44.052Z,1009.09
2023-01-03T01:23:44.000Z,1009.13
2023-01-03T01:24:43.998Z,1009.18
2023-01-03T01:25:43.979Z,1009.13
2023-01-03T01:26:43.969Z,1009.19
2023-01-03T01:27:43.959Z,1009.20
2023-01-03T01:28:43.951Z,1009.20
2023-01-03T01:29:43.964Z,1009.20
2023-01-03T01:30:43.958Z,1009.26
2023-01-03T01:31:43.953Z,1009.29
2023-01-03T01:32:43.899Z,1009.26
2023-01-03T01:33:43.896Z,1009.22
2023-01-03T01:34:43.879Z,1009.24
2023-01-03T01:35:43.900Z,1009.23
2023-01-03T01:36:43.864Z,1009.27
2023-01-03T01:37:43.849Z,1009.23
2023-01-03T01:38:43.838Z,1009.23
2023-01-03T01:39:43.818Z,1009.25
2023-01-03T01:40:43.810Z,1009.22
2023-01-03T01:41:43.818Z,1009.24
2023-01-03T01:42:43.789Z,1009.30
2023-01-03T01:43:43.785Z,1009.29
2023-01-03T01:44:43.775Z,1009.25
2023-01-03T01:45:43.759Z,1009.28
2023-01-03T01:46:43.851Z,1009.29
2023-01-03T01:47:43.743Z,1009.29
2023-01-03T01:48:43.721Z,1009.26
2023-01-03T01:49:43.719Z,1009.31
2023-01-03T01:50:43.695Z,1009.35
2023-01-03T01:51:43.689Z,1009.35
2023-01-03T01:52:43.687Z,1009.40
2023-01-03T01:53:43.676Z,1009.34
2023-01-03T01:54:43.665Z,1009.36
2023-01-03T01:55:43.666Z,1009.39
2023-01-03T01:56:43.637Z,1009.43
2023-01-03T01:57:43.638Z,1009.42
2023-01-03T01:58:43.611Z,1009.41
2023-01-03T01:59:43.626Z,1009.44
2023-01-03T02:00:43.610Z,1009.41
2023-01-03T02:01:43.726Z,1009.42
2023-01-03T02:02:43.768Z,1009.38
2023-01-03T02:03:43.652Z,1009.42
2023-01-03T02:04:43.557Z,1009.39
2023-01-03T02:05:43.539Z,1009.35
2023-01-03T02:06:43.527Z,1009.35
2023-01-03T02:07:43.510Z,1009.37
2023-01-03T02:08:43.501Z,1009.35
2023-01-03T02:09:43.507Z,1009.31
2023-01-03T02:10:43.482Z,1009.35
2023-01-03T02:11:43.467Z,1009.41
2023-01-03T02:12:43.470Z,1009.32
2023-01-03T02:13:43.452Z,1009.36
2023-01-03T02:14:43.440Z,1009.34
2023-01-03T02:15:43.475Z,1009.38
2023-01-03T02:16:43.418Z,1009.40
2023-01-03T02:17:43.398Z,1009.38
2023-01-03T02:18:43.386Z,1009.46
2023-01-03T02:19:43.375Z,1009.42
2023-01-03T02:20:43.387Z,1009.49
2023-01-03T02:21:43.357Z,1009.50
2023-01-03T02:22:43.350Z,1009.49
2023-01-03T02:23:43.327Z,1009.52
2023-01-03T02:24:43.329Z,1009.53
2023-01-03T02:25:43.306Z,1009.47
2023-01-03T02:26:43.342Z,1009.49
2023-01-03T02:27:43.287Z,1009.52
2023-01-03T02:28:43.276Z,1009.55
2023-01-03T02:29:43.256Z,1009.55
2023-01-03T02:30:43.276Z,1009.55
2023-01-03T02:31:43.339Z,1009.54
2023-01-03T02:32:43.249Z,1009.59
2023-01-03T02:33:43.219Z,1009.57
2023-01-03T02:34:43.207Z,1009.59
2023-01-03T02:35:43.197Z,1009.51
2023-01-03T02:36:43.187Z,1009.55
2023-01-03T02:37:43.202Z,1009.59
2023-01-03T02:38:43.157Z,1009.62
2023-01-03T02:39:43.146Z,1009.65
2023-01-03T02:40:43.134Z,1009.61
2023-01-03T02:41:43.115Z,1009.61
2023-01-03T02:42:43.113Z,1009.69
2023-01-03T02:43:43.135Z,1009.71
2023-01-03T02:44:43.086Z,1009.73
2023-01-03T02:45:43.077Z,1009.71
2023-01-03T02:46:43.136Z,1009.73
2023-01-03T02:47:43.048Z,1009.68
2023-01-03T02:48:43.046Z,1009.66
2023-01-03T02:49:43.046Z,1009.67
2023-01-03T02:50:43.029Z,1009.70
2023-01-03T02:51:43.006Z,1009.68
2023-01-03T02:52:43.011Z,1009.63
2023-01-03T02:53:42.989Z,1009.67
2023-01-03T02:54:42.998Z,1009.68
2023-01-03T02:55:42.966Z,1009.74
2023-01-03T02:56:42.955Z,1009.64
2023-01-03T02:57:42.938Z,1009.71
2023-01-03T02:58:42.925Z,1009.74
2023-01-03T02:59:42.916Z,1009.66
2023-01-03T03:00:42.916Z,1009.72
2023-01-03T03:01:42.944Z,1009.67
2023-01-03T03:02:43.048Z,1009.71
2023-01-03T03:03:42.916Z,1009.70
2023-01-03T03:04:42.861Z,1009.68
2023-01-03T03:05:42.866Z,1009.66
2023-01-03T03:06:42.834Z,1009.66
2023-01-03T03:07:42.847Z,1009.69
2023-01-03T03:08:42.815Z,1009.70
2023-01-03T03:09:42.796Z,1009.66
2023-01-03T03:10:42.800Z,1009.75
2023-01-03T03:11:42.797Z,1009.72
2023-01-03T03:12:42.764Z,1009.76
2023-01-03T03:13:42.756Z,1009.78
2023-01-03T03:14:42.754Z,1009.80
2023-01-03T03:15:42.752Z,1009.76
2023-01-03T03:16:42.727Z,1009.77
2023-01-03T03:17:42.739Z,1009.80
2023-01-03T03:18:42.725Z,1009.81
2023-01-03T03:19:42.685Z,1009.81
2023-01-03T03:20:42.680Z,1009.83
2023-01-03T03:21:42.673Z,1009.80
2023-01-03T03:22:42.670Z,1009.71
2023-01-03T03:23:42.678Z,1009.73
2023-01-03T03:24:42.634Z,1009.77
2023-01-03T03:25:42.663Z,1009.79
2023-01-03T03:26:42.622Z,1009.77
2023-01-03T03:27:42.602Z,1009.76
2023-01-03T03:28:42.594Z,1009.67
2023-01-03T03:29:42.627Z,1009.74
2023-01-03T03:30:42.573Z,1009.73
2023-01-03T03:31:42.594Z,1009.76
2023-01-03T03:32:42.544Z,1009.80
2023-01-03T03:33:42.543Z,1009.82
2023-01-03T03:34:42.525Z,1009.83
2023-01-03T03:35:42.538Z,1009.77
2023-01-03T03:36:42.506Z,1009.83
2023-01-03T03:37:42.501Z,1009.86
2023-01-03T03:38:42.483Z,1009.82
2023-01-03T03:39:42.464Z,1009.77
2023-01-03T03:40:42.493Z,1009.81
2023-01-03T03:41:42.449Z,1009.82
2023-01-03T03:42:42.447Z,1009.85
2023-01-03T03:43:42.423Z,1009.80
2023-01-03T03:44:42.423Z,1009.84
2023-01-03T03:45:42.414Z,1009.87
2023-01-03T03:46:44.939Z,1009.87
2023-01-03T03:47:43.383Z,1009.90
2023-01-03T03:48:42.381Z,1009.84
2023-01-03T03:49:42.367Z,1009.83
2023-01-03T03:50:42.353Z,1009.91
2023-01-03T03:51:42.343Z,1009.93
2023-01-03T03:52:42.354Z,1009.91
2023-01-03T03:53:42.313Z,1009.94
2023-01-03T03:54:42.311Z,1009.91
2023-01-03T03:55:42.313Z,1009.96
2023-01-03T03:56:42.293Z,1009.90
2023-01-03T03:57:42.293Z,1009.94
2023-01-03T03:58:42.277Z,1009.97
2023-01-03T03:59:42.256Z,1009.88
2023-01-03T04:00:42.243Z,1009.94
2023-01-03T04:01:42.326Z,1009.94
2023-01-03T04:02:42.316Z,1009.97
2023-01-03T04:03:42.292Z,1009.93
2023-01-03T04:04:42.202Z,1009.94
2023-01-03T04:05:42.196Z,1009.93
2023-01-03T04:06:42.190Z,1009.97
2023-01-03T04:07:42.164Z,1010.00
2023-01-03T04:08:42.152Z,1009.96
2023-01-03T04:09:42.165Z,1010.05
2023-01-03T04:10:42.132Z,1009.96
2023-01-03T04:11:42.124Z,1009.95
2023-01-03T04:12:42.112Z,1010.02
2023-01-03T04:13:42.102Z,1010.03
2023-01-03T04:14:42.092Z,1010.01
2023-01-03T04:15:42.116Z,1010.10
2023-01-03T04:16:42.133Z,1010.07
2023-01-03T04:17:42.062Z,1010.06
2023-01-03T04:18:42.055Z,1010.05
2023-01-03T04:19:42.037Z,1010.05
2023-01-03T04:20:42.031Z,1010.02
2023-01-03T04:21:42.032Z,1010.04
2023-01-03T04:22:42.003Z,1010.06
2023-01-03T04:23:41.991Z,1010.03
2023-01-03T04:24:41.981Z,1010.03
2023-01-03T04:25:41.980Z,1010.03
2023-01-03T04:26:41.980Z,1010.05
2023-01-03T04:27:41.964Z,1010.08
2023-01-03T04:28:41.939Z,1010.05
2023-01-03T04:29:41.959Z,1010.12
2023-01-03T04:30:41.924Z,1010.18
2023-01-03T04:31:41.951Z,1010.11
2023-01-03T04:32:41.918Z,1010.18
2023-01-03T04:33:41.879Z,1010.17
2023-01-03T04:34:41.871Z,1010.19
2023-01-03T04:35:41.875Z,1010.16
2023-01-03T04:36:41.865Z,1010.18
2023-01-03T04:37:41.862Z,1010.16
2023-01-03T04:38:41.830Z,1010.19
2023-01-03T04:39:41.819Z,1010.19
2023-01-03T04:40:41.809Z,1010.20
2023-01-03T04:41:41.789Z,1010.21
2023-01-03T04:42:41.784Z,1010.20
2023-01-03T04:43:41.789Z,1010.22
2023-01-03T04:44:41.782Z,1010.17
2023-01-03T04:45:41.841Z,1010.23
2023-01-03T04:46:44.134Z,1010.20
2023-01-03T04:47:42.719Z,1010.21
2023-01-03T04:48:41.718Z,1010.21
2023-01-03T04:49:41.732Z,1010.21
2023-01-03T04:50:41.701Z,1010.22
2023-01-03T04:51:41.679Z,1010.15
2023-01-03T04:52:41.670Z,1010.20
2023-01-03T04:53:41.658Z,1010.24
2023-01-03T04:54:41.649Z,1010.26
2023-01-03T04:55:41.669Z,1010.23
2023-01-03T04:56:41.635Z,1010.21
2023-01-03T04:57:41.620Z,1010.28
2023-01-03T04:58:41.608Z,1010.20
2023-01-03T04:59:41.591Z,1010.25
2023-01-03T05:00:41.607Z,1010.22
2023-01-03T05:01:41.801Z,1010.34
2023-01-03T05:02:41.755Z,1010.25
2023-01-03T05:03:41.605Z,1010.17
2023-01-03T05:04:41.619Z,1010.22
2023-01-03T05:05:41.539Z,1010.23
2023-01-03T05:06:41.535Z,1010.14
2023-01-03T05:07:41.499Z,1010.19
2023-01-03T05:08:41.500Z,1010.15
2023-01-03T05:09:41.500Z,1010.17
2023-01-03T05:10:41.471Z,1010.18
2023-01-03T05:11:41.457Z,1010.16
2023-01-03T05:12:41.472Z,1010.13
2023-01-03T05:13:41.445Z,1010.20
2023-01-03T05:14:41.504Z,1010.19
2023-01-03T05:15:41.429Z,1010.20
2023-01-03T05:16:41.460Z,1010.21
2023-01-03T05:17:41.387Z,1010.22
2023-01-03T05:18:41.399Z,1010.18
2023-01-03T05:19:45.414Z,1010.21
2023-01-03T05:20:41.357Z,1010.20
2023-01-03T05:21:41.349Z,1010.24
2023-01-03T05:22:41.335Z,1010.22
2023-01-03T05:23:41.319Z,1010.22
2023-01-03T05:24:41.328Z,1010.24
2023-01-03T05:25:41.306Z,1010.25
2023-01-03T05:26:41.287Z,1010.21
2023-01-03T05:27:41.291Z,1010.25
2023-01-03T05:28:41.278Z,1010.27
2023-01-03T05:29:41.279Z,1010.22
2023-01-03T05:30:41.247Z,1010.24
2023-01-03T05:31:41.343Z,1010.23
2023-01-03T05:32:41.225Z,1010.23
2023-01-03T05:33:41.207Z,1010.27
2023-01-03T05:34:41.198Z,1010.28
2023-01-03T05:35:41.204Z,1010.25
2023-01-03T05:36:41.177Z,1010.22
2023-01-03T05:37:41.165Z,1010.28
2023-01-03T05:38:41.155Z,1010.30
2023-01-03T05:39:41.145Z,1010.31
2023-01-03T05:40:41.631Z,1010.32
2023-01-03T05:41:41.115Z,1010.36
2023-01-03T05:42:41.109Z,1010.34
2023-01-03T05:43:41.099Z,1010.38
2023-01-03T05:44:41.095Z,1010.38
2023-01-03T05:45:41.161Z,1010.35
2023-01-03T05:46:41.085Z,1010.36
2023-01-03T05:47:41.057Z,1010.39
2023-01-03T05:48:41.043Z,1010.36
2023-01-03T05:49:41.031Z,1010.36
2023-01-03T05:50:41.014Z,1010.34
2023-01-03T05:51:41.018Z,1010.33
2023-01-03T05:52:41.015Z,1010.36
2023-01-03T05:53:40.983Z,1010.33
2023-01-03T05:54:40.975Z,1010.39
2023-01-03T05:55:40.978Z,1010.36
2023-01-03T05:56:40.955Z,1010.36
2023-01-03T05:57:40.966Z,1010.32
2023-01-03T05:58:40.933Z,1010.32
2023-01-03T05:59:40.921Z,1010.37
2023-01-03T06:00:40.940Z,1010.35
2023-01-03T06:01:40.932Z,1010.33
2023-01-03T06:02:40.964Z,1010.40
2023-01-03T06:03:40.886Z,1010.38
2023-01-03T06:04:40.977Z,1010.36
2023-01-03T06:05:46.080Z,1010.34
2023-01-03T06:06:41.844Z,1010.31
2023-01-03T06:07:40.823Z,1010.28
2023-01-03T06:08:40.842Z,1010.32
2023-01-03T06:09:40.814Z,1010.33
2023-01-03T06:10:40.795Z,1010.40
2023-01-03T06:11:40.784Z,1010.40
2023-01-03T06:12:40.773Z,1010.38
2023-01-03T06:13:40.767Z,1010.42
2023-01-03T06:14:40.774Z,1010.39
2023-01-03T06:15:40.743Z,1010.42
2023-01-03T06:16:40.785Z,1010.45
2023-01-03T06:17:40.719Z,1010.51
2023-01-03T06:18:40.712Z,1010.50
2023-01-03T06:19:40.691Z,1010.44
2023-01-03T06:20:40.701Z,1010.47
2023-01-03T06:21:40.671Z,1010.50
2023-01-03T06:22:40.661Z,1010.56
2023-01-03T06:23:40.652Z,1010.52
2023-01-03T06:24:40.645Z,1010.59
2023-01-03T06:25:40.670Z,1010.53
2023-01-03T06:26:40.642Z,1010.52
2023-01-03T06:27:40.601Z,1010.49
2023-01-03T06:28:40.592Z,1010.51
2023-01-03T06:29:40.582Z,1010.53
2023-01-03T06:30:40.591Z,1010.50
2023-01-03T06:31:40.567Z,1010.53
2023-01-03T06:32:40.571Z,1010.52
2023-01-03T06:33:40.561Z,1010.54
2023-01-03T06:34:40.522Z,1010.51
2023-01-03T06:35:40.522Z,1010.48
2023-01-03T06:36:40.503Z,1010.52
2023-01-03T06:37:40.490Z,1010.49
2023-01-03T06:38:40.502Z,1010.51
2023-01-03T06:39:40.474Z,1010.48
2023-01-03T06:40:45.574Z,1010.51
2023-01-03T06:41:41.455Z,1010.51
2023-01-03T06:42:40.445Z,1010.52
2023-01-03T06:43:40.449Z,1010.49
2023-01-03T06:44:40.447Z,1010.60
2023-01-03T06:45:40.422Z,1010.56
2023-01-03T06:46:40.447Z,1010.58
2023-01-03T06:47:40.380Z,1010.54
2023-01-03T06:48:40.373Z,1010.59
2023-01-03T06:49:40.386Z,1010.58
2023-01-03T06:50:40.359Z,1010.57
2023-01-03T06:51:40.339Z,1010.65
2023-01-03T06:52:40.319Z,1010.59
2023-01-03T06:53:40.327Z,1010.63
2023-01-03T06:54:40.303Z,1010.59
2023-01-03T06:55:40.351Z,1010.64
2023-01-03T06:56:40.278Z,1010.72
2023-01-03T06:57:40.269Z,1010.64
2023-01-03T06:58:40.258Z,1010.70
2023-01-03T06:59:40.248Z,1010.68
2023-01-03T07:00:40.240Z,1010.64
2023-01-03T07:01:40.339Z,1010.66
2023-01-03T07:02:40.279Z,1010.68
2023-01-03T07:03:40.198Z,1010.67
2023-01-03T07:04:40.223Z,1010.65
2023-01-03T07:05:40.188Z,1010.68
2023-01-03T07:06:40.168Z,1010.73
2023-01-03T07:07:40.178Z,1010.71
2023-01-03T07:08:45.917Z,1010.72
2023-01-03T07:09:41.138Z,1010.74
2023-01-03T07:10:40.128Z,1010.70
2023-01-03T07:11:40.122Z,1010.77
2023-01-03T07:12:40.129Z,1010.78
2023-01-03T07:13:40.092Z,1010.75
2023-01-03T07:14:40.075Z,1010.78
2023-01-03T07:15:40.149Z,1010.83
2023-01-03T07:16:40.068Z,1010.82
2023-01-03T07:17:40.048Z,1010.81
2023-01-03T07:18:40.057Z,1010.90
2023-01-03T07:19:40.024Z,1010.91
2023-01-03T07:20:40.070Z,1010.88
2023-01-03T07:21:39.998Z,1010.89
2023-01-03T07:22:39.987Z,1010.90
2023-01-03T07:23:40.005Z,1010.93
2023-01-03T07:24:39.969Z,1010.92
2023-01-03T07:25:39.963Z,1010.98
2023-01-03T07:26:39.946Z,1010.98
2023-01-03T07:27:39.936Z,1011.01
2023-01-03T07:28:39.936Z,1011.04
2023-01-03T07:29:39.928Z,1011.06
2023-01-03T07:30:39.904Z,1011.07
2023-01-03T07:31:39.938Z,1011.05
2023-01-03T07:32:39.875Z,1011.02
2023-01-03T07:33:39.875Z,1011.05
2023-01-03T07:34:39.877Z,1011.03
2023-01-03T07:35:39.853Z,1011.05
2023-01-03T07:36:39.835Z,1011.09
2023-01-03T07:37:39.826Z,1011.09
2023-01-03T07:38:39.826Z,1011.11
2023-01-03T07:39:39.805Z,1011.14
2023-01-03T07:40:39.802Z,1011.16
2023-01-03T07:41:39.784Z,1011.20
2023-01-03T07:42:39.765Z,1011.23
2023-01-03T07:43:39.769Z,1011.18
2023-01-03T07:44:39.743Z,1011.22
2023-01-03T07:45:39.765Z,1011.23
2023-01-03T07:46:39.770Z,1011.32
2023-01-03T07:47:39.714Z,1011.30
2023-01-03T07:48:39.702Z,1011.33
2023-01-03T07:49:39.693Z,1011.38
2023-01-03T07:50:39.684Z,1011.34
2023-01-03T07:51:39.725Z,1011.34
2023-01-03T07:52:39.654Z,1011.37
2023-01-03T07:53:39.654Z,1011.41
2023-01-03T07:54:39.641Z,1011.41
2023-01-03T07:55:39.624Z,1011.41
2023-01-03T07:56:39.613Z,1011.40
2023-01-03T07:57:39.627Z,1011.43
2023-01-03T07:58:39.592Z,1011.42
2023-01-03T07:59:39.588Z,1011.43
2023-01-03T08:00:39.566Z,1011.49
2023-01-03T08:01:39.689Z,1011.40
2023-01-03T08:02:39.695Z,1011.48
2023-01-03T08:03:39.546Z,1011.45
2023-01-03T08:04:39.570Z,1011.48
2023-01-03T08:05:39.521Z,1011.50
2023-01-03T08:06:39.522Z,1011.53
2023-01-03T08:07:39.502Z,1011.58
2023-01-03T08:08:39.508Z,1011.54
2023-01-03T08:09:39.474Z,1011.53
2023-01-03T08:10:39.471Z,1011.55
2023-01-03T08:11:39.453Z,1011.54
2023-01-03T08:12:39.441Z,1011.55
2023-01-03T08:13:39.451Z,1011.56
2023-01-03T08:14:39.422Z,1011.54
2023-01-03T08:15:39.456Z,1011.64
2023-01-03T08:16:39.420Z,1011.65
2023-01-03T08:17:39.387Z,1011.65
2023-01-03T08:18:39.385Z,1011.72
2023-01-03T08:19:45.275Z,1011.70
2023-01-03T08:20:40.351Z,1011.75
2023-01-03T08:21:39.331Z,1011.65
2023-01-03T08:22:39.325Z,1011.66
2023-01-03T08:23:39.326Z,1011.66
2023-01-03T08:24:39.300Z,1011.70
2023-01-03T08:25:39.361Z,1011.68
2023-01-03T08:26:39.269Z,1011.66
2023-01-03T08:27:40.264Z,1011.70
2023-01-03T08:28:39.257Z,1011.65
2023-01-03T08:29:39.251Z,1011.71
2023-01-03T08:30:39.241Z,1011.67
2023-01-03T08:31:39.308Z,1011.64
2023-01-03T08:32:39.231Z,1011.65
2023-01-03T08:33:39.197Z,1011.71
2023-01-03T08:34:39.190Z,1011.68
2023-01-03T08:35:39.185Z,1011.66
2023-01-03T08:36:39.189Z,1011.68
2023-01-03T08:37:39.160Z,1011.67
2023-01-03T08:38:39.148Z,1011.63
2023-01-03T08:39:39.140Z,1011.68
2023-01-03T08:40:42.109Z,1011.70
2023-01-03T08:41:39.119Z,1011.75
2023-01-03T08:42:39.119Z,1011.80
2023-01-03T08:43:39.100Z,1011.86
2023-01-03T08:44:39.092Z,1011.89
2023-01-03T08:45:39.078Z,1011.93
2023-01-03T08:46:39.088Z,1011.93
2023-01-03T08:47:39.079Z,1011.93
2023-01-03T08:48:39.066Z,1011.90
2023-01-03T08:49:39.029Z,1011.89
2023-01-03T08:50:39.020Z,1011.83
2023-01-03T08:51:39.013Z,1011.80
2023-01-03T08:52:38.999Z,1011.82
2023-01-03T08:53:39.018Z,1011.77
2023-01-03T08:54:38.980Z,1011.73
2023-01-03T08:55:38.972Z,1011.78
2023-01-03T08:56:38.952Z,1011.76
2023-01-03T08:57:38.942Z,1011.70
2023-01-03T08:58:38.929Z,1011.69
2023-01-03T08:59:38.950Z,1011.64
2023-01-03T09:00:38.905Z,1011.64
2023-01-03T09:01:39.027Z,1011.61
2023-01-03T09:02:39.145Z,1011.64
2023-01-03T09:03:39.048Z,1011.62
2023-01-03T09:04:38.882Z,1011.64
2023-01-03T09:05:38.864Z,1011.65
2023-01-03T09:06:38.848Z,1011.64
2023-01-03T09:07:38.837Z,1011.61
2023-01-03T09:08:38.819Z,1011.71
2023-01-03T09:09:38.819Z,1011.73
2023-01-03T09:10:43.585Z,1011.70
2023-01-03T09:11:39.790Z,1011.75
2023-01-03T09:12:38.780Z,1011.78
2023-01-03T09:13:38.768Z,1011.80
2023-01-03T09:14:38.761Z,1011.78
2023-01-03T09:15:38.756Z,1011.77
2023-01-03T09:16:41.672Z,1011.81
2023-01-03T09:17:39.723Z,1011.82
2023-01-03T09:18:38.706Z,1011.80
2023-01-03T09:19:38.698Z,1011.84
2023-01-03T09:20:38.688Z,1011.82
2023-01-03T09:21:38.718Z,1011.84
2023-01-03T09:22:38.666Z,1011.86
2023-01-03T09:23:38.644Z,1011.90
2023-01-03T09:24:38.645Z,1011.86
2023-01-03T09:25:38.638Z,1011.86
2023-01-03T09:26:38.627Z,1011.94
2023-01-03T09:27:38.627Z,1011.92
2023-01-03T09:28:38.599Z,1011.91
2023-01-03T09:29:38.592Z,1012.00
2023-01-03T09:30:38.567Z,1011.95
2023-01-03T09:31:40.190Z,1011.93
2023-01-03T09:32:38.566Z,1012.00
2023-01-03T09:33:38.584Z,1012.04
2023-01-03T09:34:38.523Z,1012.02
2023-01-03T09:35:38.523Z,1012.05
2023-01-03T09:36:38.539Z,1012.03
2023-01-03T09:37:40.665Z,1012.00
2023-01-03T09:38:38.497Z,1012.00
2023-01-03T09:39:38.468Z,1012.01
2023-01-03T09:40:38.459Z,1012.03
2023-01-03T09:41:38.450Z,1012.00
2023-01-03T09:42:38.436Z,1012.01
2023-01-03T09:43:38.442Z,1012.02
2023-01-03T09:44:38.420Z,1012.03
2023-01-03T09:45:38.410Z,1012.05
2023-01-03T09:46:38.494Z,1012.07
2023-01-03T09:47:38.404Z,1012.09
2023-01-03T09:48:38.368Z,1012.07
2023-01-03T09:49:51.858Z,1012.11
2023-01-03T09:51:05.964Z,1012.13
2023-01-03T09:51:39.334Z,1012.08
2023-01-03T09:52:38.321Z,1012.07
2023-01-03T09:53:38.316Z,1012.06
2023-01-03T09:54:38.295Z,1012.04
2023-01-03T09:55:38.353Z,1012.05
2023-01-03T09:56:38.309Z,1012.04
2023-01-03T09:57:38.264Z,1012.06
2023-01-03T09:58:38.258Z,1012.05
2023-01-03T09:59:38.252Z,1011.98
2023-01-03T10:00:38.269Z,1012.10
2023-01-03T10:01:38.318Z,1012.04
2023-01-03T10:02:38.308Z,1011.99
2023-01-03T10:03:38.271Z,1012.03
2023-01-03T10:04:38.187Z,1012.00
2023-01-03T10:05:38.174Z,1012.00
2023-01-03T10:06:38.185Z,1011.98
2023-01-03T10:07:38.153Z,1011.92
2023-01-03T10:08:38.160Z,1011.91
2023-01-03T10:09:38.142Z,1011.93
2023-01-03T10:10:38.114Z,1011.90
2023-01-03T10:11:38.106Z,1011.88
2023-01-03T10:12:38.128Z,1011.89
2023-01-03T10:13:38.090Z,1011.92
2023-01-03T10:14:38.090Z,1011.88
2023-01-03T10:15:38.067Z,1011.89
2023-01-03T10:16:38.129Z,1011.88
2023-01-03T10:17:38.052Z,1011.86
2023-01-03T10:18:38.043Z,1011.91
2023-01-03T10:19:38.023Z,1011.83
2023-01-03T10:20:38.014Z,1011.87
2023-01-03T10:21:37.993Z,1011.82
2023-01-03T10:22:37.989Z,1011.82
2023-01-03T10:23:37.994Z,1011.85
2023-01-03T10:24:37.965Z,1011.81
2023-01-03T10:25:37.955Z,1011.83
2023-01-03T10:26:37.944Z,1011.87
2023-01-03T10:27:37.934Z,1011.83
2023-01-03T10:28:37.922Z,1011.89
2023-01-03T10:29:37.933Z,1011.85
2023-01-03T10:30:37.903Z,1011.85
2023-01-03T10:31:37.940Z,1011.80
2023-01-03T10:32:37.877Z,1011.84
2023-01-03T10:33:37.865Z,1011.86
2023-01-03T10:34:37.861Z,1011.86
2023-01-03T10:35:37.853Z,1011.79
2023-01-03T10:36:37.831Z,1011.82
2023-01-03T10:37:37.822Z,1011.81
2023-01-03T10:38:44.783Z,1011.79
2023-01-03T10:39:40.653Z,1011.75
2023-01-03T10:40:37.804Z,1011.75
2023-01-03T10:41:37.774Z,1011.77
2023-01-03T10:42:37.768Z,1011.81
2023-01-03T10:43:37.761Z,1011.80
2023-01-03T10:44:37.754Z,1011.79
2023-01-03T10:45:41.704Z,1011.78
2023-01-03T10:46:38.779Z,1011.76
2023-01-03T10:47:37.704Z,1011.75
2023-01-03T10:49:00.304Z,1011.74
2023-01-03T10:49:38.694Z,1011.67
2023-01-03T10:50:37.685Z,1011.66
2023-01-03T10:51:42.572Z,1011.65
2023-01-03T10:52:38.673Z,1011.68
2023-01-03T10:53:37.641Z,1011.64
2023-01-03T10:54:37.632Z,1011.56
2023-01-03T10:55:37.651Z,1011.57
2023-01-03T10:56:37.606Z,1011.60
2023-01-03T10:57:37.600Z,1011.57
2023-01-03T10:58:37.613Z,1011.54
2023-01-03T10:59:37.593Z,1011.58
2023-01-03T11:00:37.573Z,1011.61
2023-01-03T11:01:37.682Z,1011.59
2023-01-03T11:02:37.732Z,1011.61
2023-01-03T11:03:37.593Z,1011.65
2023-01-03T11:04:37.557Z,1011.58
2023-01-03T11:05:37.503Z,1011.56
2023-01-03T11:06:37.508Z,1011.64
2023-01-03T11:07:37.482Z,1011.64
2023-01-03T11:08:37.512Z,1011.59
2023-01-03T11:09:37.464Z,1011.58
2023-01-03T11:10:37.476Z,1011.62
2023-01-03T11:11:37.442Z,1011.53
2023-01-03T11:12:37.421Z,1011.56
2023-01-03T11:13:37.431Z,1011.51
2023-01-03T11:14:37.422Z,1011.50
2023-01-03T11:15:39.075Z,1011.53
2023-01-03T11:16:37.467Z,1011.55
2023-01-03T11:17:37.371Z,1011.54
2023-01-03T11:18:37.376Z,1011.54
2023-01-03T11:19:37.349Z,1011.58
2023-01-03T11:20:37.340Z,1011.60
2023-01-03T11:21:37.323Z,1011.62
2023-01-03T11:22:38.102Z,1011.61
2023-01-03T11:23:37.305Z,1011.59
2023-01-03T11:24:37.291Z,1011.57
2023-01-03T11:25:37.307Z,1011.54
2023-01-03T11:26:37.310Z,1011.48
2023-01-03T11:27:37.301Z,1011.47
2023-01-03T11:28:37.251Z,1011.48
2023-01-03T11:29:37.231Z,1011.42
2023-01-03T11:30:37.221Z,1011.41
2023-01-03T11:31:37.232Z,1011.41
2023-01-03T11:32:37.207Z,1011.42
2023-01-03T11:33:37.214Z,1011.37
2023-01-03T11:35:11.636Z,1011.41
2023-01-03T11:35:38.170Z,1011.39
2023-01-03T11:36:37.161Z,1011.40
2023-01-03T11:37:37.141Z,1011.45
2023-01-03T11:38:37.142Z,1011.39
2023-01-03T11:39:37.145Z,1011.44
2023-01-03T11:40:37.113Z,1011.46
2023-01-03T11:41:37.094Z,1011.47
2023-01-03T11:42:37.126Z,1011.41
2023-01-03T11:43:37.081Z,1011.41
2023-01-03T11:44:37.070Z,1011.36
2023-01-03T11:45:38.700Z,1011.36
2023-01-03T11:46:37.078Z,1011.42
2023-01-03T11:47:37.027Z,1011.36
2023-01-03T11:48:37.036Z,1011.33
2023-01-03T11:49:37.032Z,1011.33
2023-01-03T11:50:37.001Z,1011.35
2023-01-03T11:51:37.003Z,1011.26
2023-01-03T11:52:36.986Z,1011.30
2023-01-03T11:53:36.963Z,1011.26
2023-01-03T11:54:36.962Z,1011.17
2023-01-03T11:55:36.941Z,1011.23
2023-01-03T11:56:36.951Z,1011.24
2023-01-03T11:57:36.941Z,1011.25
2023-01-03T11:58:36.911Z,1011.19
2023-01-03T11:59:36.894Z,1011.16
2023-01-03T12:00:36.893Z,1011.18
2023-01-03T12:01:39.555Z,1011.15
2023-01-03T12:02:36.905Z,1011.16
2023-01-03T12:03:36.986Z,1011.13
2023-01-03T12:04:36.934Z,1011.09
2023-01-03T12:05:36.839Z,1011.12